sensor_id;sensor_type;location;lat;lon;timestamp;pressure;altitude;pressure_sealevel;temperature;humidity
64253;BME280;50592;52.958;-7.470;2023-04-28T00:00:51;99596.44;;;11.72;100.00
64253;BME280;50592;52.958;-7.470;2023-04-28T00:03:17;99601.91;;;11.71;100.00
64253;BME280;50592;52.958;-7.470;2023-04-28T00:05:43;99600.63;;;11.66;100.00
64253;BME280;50592;52.958;-7.470;2023-04-28T00:08:08;99602.25;;;11.68;100.00
64253;BME280;50592;52.958;-7.470;2023-04-28T00:10:34;99602.25;;;11.68;100.00
64253;BME280;50592;52.958;-7.470;2023-04-28T00:13:00;99604.72;;;11.69;100.00
64253;BME280;50592;52.958;-7.470;2023-04-28T00:15:26;99613.16;;;11.73;100.00
64253;BME280;50592;52.958;-7.470;2023-04-28T00:17:52;99606.22;;;11.72;100.00
64253;BME280;50592;52.958;-7.470;2023-04-28T00:20:18;99609.84;;;11.71;100.00
64253;BME280;50592;52.958;-7.470;2023-04-28T00:22:44;99611.69;;;11.70;100.00
64253;BME280;50592;52.958;-7.470;2023-04-28T00:25:10;99605.75;;;11.68;100.00
64253;BME280;50592;52.958;-7.470;2023-04-28T00:27:36;99601.78;;;11.64;100.00
64253;BME280;50592;52.958;-7.470;2023-04-28T00:30:02;99603.13;;;11.60;100.00
64253;BME280;50592;52.958;-7.470;2023-04-28T00:32:30;99603.63;;;11.55;100.00
64253;BME280;50592;52.958;-7.470;2023-04-28T00:34:56;99610.78;;;11.54;100.00
64253;BME280;50592;52.958;-7.470;2023-04-28T00:37:22;99618.22;;;11.51;100.00
64253;BME280;50592;52.958;-7.470;2023-04-28T00:39:48;99611.91;;;11.52;100.00
64253;BME280;50592;52.958;-7.470;2023-04-28T00:42:18;99613.75;;;11.51;100.00
64253;BME280;50592;52.958;-7.470;2023-04-28T00:44:45;99612.94;;;11.51;100.00
64253;BME280;50592;52.958;-7.470;2023-04-28T00:47:11;99623.34;;;11.52;100.00
64253;BME280;50592;52.958;-7.470;2023-04-28T00:49:38;99619.50;;;11.55;100.00
64253;BME280;50592;52.958;-7.470;2023-04-28T00:52:05;99618.03;;;11.61;100.00
64253;BME280;50592;52.958;-7.470;2023-04-28T00:54:32;99638.03;;;11.63;100.00
64253;BME280;50592;52.958;-7.470;2023-04-28T00:57:00;99625.63;;;11.64;100.00
64253;BME280;50592;52.958;-7.470;2023-04-28T00:59:28;99629.91;;;11.65;100.00
64253;BME280;50592;52.958;-7.470;2023-04-28T01:01:54;99630.75;;;11.65;100.00
64253;BME280;50592;52.958;-7.470;2023-04-28T01:04:20;99635.03;;;11.66;100.00
64253;BME280;50592;52.958;-7.470;2023-04-28T01:06:47;99629.75;;;11.66;100.00
64253;BME280;50592;52.958;-7.470;2023-04-28T01:09:13;99641.34;;;11.65;100.00
64253;BME280;50592;52.958;-7.470;2023-04-28T01:11:39;99640.50;;;11.65;100.00
64253;BME280;50592;52.958;-7.470;2023-04-28T01:14:10;99638.50;;;11.67;100.00
64253;BME280;50592;52.958;-7.470;2023-04-28T01:16:39;99639.81;;;11.71;100.00
64253;BME280;50592;52.958;-7.470;2023-04-28T01:19:19;99641.94;;;11.76;100.00
64253;BME280;50592;52.958;-7.470;2023-04-28T01:21:50;99642.47;;;11.71;100.00
64253;BME280;50592;52.958;-7.470;2023-04-28T01:24:19;99647.09;;;11.69;100.00
64253;BME280;50592;52.958;-7.470;2023-04-28T01:26:45;99646.09;;;11.70;100.00
64253;BME280;50592;52.958;-7.470;2023-04-28T01:29:11;99650.22;;;11.73;100.00
64253;BME280;50592;52.958;-7.470;2023-04-28T01:31:37;99649.56;;;11.71;100.00
64253;BME280;50592;52.958;-7.470;2023-04-28T01:34:03;99657.34;;;11.72;100.00
64253;BME280;50592;52.958;-7.470;2023-04-28T01:36:29;99649.72;;;11.69;100.00
64253;BME280;50592;52.958;-7.470;2023-04-28T01:38:55;99656.88;;;11.69;100.00
64253;BME280;50592;52.958;-7.470;2023-04-28T01:41:20;99659.53;;;11.69;100.00
64253;BME280;50592;52.958;-7.470;2023-04-28T01:43:47;99658.69;;;11.68;100.00
64253;BME280;50592;52.958;-7.470;2023-04-28T01:46:12;99657.03;;;11.67;100.00
64253;BME280;50592;52.958;-7.470;2023-04-28T01:48:38;99671.25;;;11.66;100.00
64253;BME280;50592;52.958;-7.470;2023-04-28T01:51:05;99665.16;;;11.65;100.00
64253;BME280;50592;52.958;-7.470;2023-04-28T01:53:30;99673.09;;;11.65;100.00
64253;BME280;50592;52.958;-7.470;2023-04-28T01:55:56;99671.25;;;11.66;100.00
64253;BME280;50592;52.958;-7.470;2023-04-28T01:58:23;99673.91;;;11.66;100.00
64253;BME280;50592;52.958;-7.470;2023-04-28T02:00:50;99673.91;;;11.66;100.00
64253;BME280;50592;52.958;-7.470;2023-04-28T02:03:18;99668.94;;;11.63;100.00
64253;BME280;50592;52.958;-7.470;2023-04-28T02:05:43;99668.94;;;11.63;100.00
64253;BME280;50592;52.958;-7.470;2023-04-28T02:08:09;99674.75;;;11.58;100.00
64253;BME280;50592;52.958;-7.470;2023-04-28T02:10:35;99677.91;;;11.53;100.00
64253;BME280;50592;52.958;-7.470;2023-04-28T02:13:01;99671.97;;;11.51;100.00
64253;BME280;50592;52.958;-7.470;2023-04-28T02:15:27;99681.56;;;11.52;100.00
64253;BME280;50592;52.958;-7.470;2023-04-28T02:17:52;99680.91;;;11.50;100.00
64253;BME280;50592;52.958;-7.470;2023-04-28T02:20:18;99678.41;;;11.49;100.00
64253;BME280;50592;52.958;-7.470;2023-04-28T02:22:44;99673.28;;;11.47;100.00
64253;BME280;50592;52.958;-7.470;2023-04-28T02:25:10;99681.06;;;11.49;100.00
64253;BME280;50592;52.958;-7.470;2023-04-28T02:27:36;99689.84;;;11.49;100.00
64253;BME280;50592;52.958;-7.470;2023-04-28T02:30:04;99686.19;;;11.50;100.00
64253;BME280;50592;52.958;-7.470;2023-04-28T02:32:30;99687.03;;;11.51;100.00
64253;BME280;50592;52.958;-7.470;2023-04-28T02:34:56;99688.84;;;11.50;100.00
64253;BME280;50592;52.958;-7.470;2023-04-28T02:37:22;99684.38;;;11.51;100.00
64253;BME280;50592;52.958;-7.470;2023-04-28T02:39:49;99691.47;;;11.50;100.00
64253;BME280;50592;52.958;-7.470;2023-04-28T02:42:15;99701.91;;;11.52;100.00
64253;BME280;50592;52.958;-7.470;2023-04-28T02:44:41;99700.75;;;11.54;100.00
64253;BME280;50592;52.958;-7.470;2023-04-28T02:47:07;99707.69;;;11.56;100.00
64253;BME280;50592;52.958;-7.470;2023-04-28T02:49:33;99709.34;;;11.57;100.00
64253;BME280;50592;52.958;-7.470;2023-04-28T02:51:59;99715.47;;;11.57;100.00
64253;BME280;50592;52.958;-7.470;2023-04-28T02:54:26;99719.75;;;11.58;100.00
64253;BME280;50592;52.958;-7.470;2023-04-28T02:56:57;99711.47;;;11.61;100.00
64253;BME280;50592;52.958;-7.470;2023-04-28T02:59:23;99714.28;;;11.60;100.00
64253;BME280;50592;52.958;-7.470;2023-04-28T03:01:49;99711.63;;;11.60;100.00
64253;BME280;50592;52.958;-7.470;2023-04-28T03:04:16;99712.47;;;11.60;100.00
64253;BME280;50592;52.958;-7.470;2023-04-28T03:06:43;99707.19;;;11.60;100.00
64253;BME280;50592;52.958;-7.470;2023-04-28T03:09:09;99716.13;;;11.59;100.00
64253;BME280;50592;52.958;-7.470;2023-04-28T03:11:35;99717.78;;;11.60;100.00
64253;BME280;50592;52.958;-7.470;2023-04-28T03:14:02;99721.25;;;11.61;100.00
64253;BME280;50592;52.958;-7.470;2023-04-28T03:16:28;99714.94;;;11.62;100.00
64253;BME280;50592;52.958;-7.470;2023-04-28T03:18:54;99719.41;;;11.61;100.00
64253;BME280;50592;52.958;-7.470;2023-04-28T03:21:20;99718.59;;;11.61;100.00
64253;BME280;50592;52.958;-7.470;2023-04-28T03:23:46;99726.72;;;11.59;100.00
64253;BME280;50592;52.958;-7.470;2023-04-28T03:26:12;99726.88;;;11.58;100.00
64253;BME280;50592;52.958;-7.470;2023-04-28T03:28:38;99729.53;;;11.58;100.00
64253;BME280;50592;52.958;-7.470;2023-04-28T03:31:04;99735.00;;;11.56;100.00
64253;BME280;50592;52.958;-7.470;2023-04-28T03:33:30;99728.88;;;11.56;100.00
64253;BME280;50592;52.958;-7.470;2023-04-28T03:35:57;99732.34;;;11.56;100.00
64253;BME280;50592;52.958;-7.470;2023-04-28T03:38:23;99730.69;;;11.55;100.00
64253;BME280;50592;52.958;-7.470;2023-04-28T03:40:50;99735.16;;;11.54;100.00
64253;BME280;50592;52.958;-7.470;2023-04-28T03:43:34;99732.69;;;11.53;100.00
64253;BME280;50592;52.958;-7.470;2023-04-28T03:46:21;99737.31;;;11.51;100.00
64253;BME280;50592;52.958;-7.470;2023-04-28T03:48:48;99743.28;;;11.53;100.00
64253;BME280;50592;52.958;-7.470;2023-04-28T03:51:13;99736.31;;;11.52;100.00
64253;BME280;50592;52.958;-7.470;2023-04-28T03:53:40;99736.47;;;11.50;100.00
64253;BME280;50592;52.958;-7.470;2023-04-28T03:56:06;99740.78;;;11.51;100.00
64253;BME280;50592;52.958;-7.470;2023-04-28T03:58:32;99738.16;;;11.51;100.00
64253;BME280;50592;52.958;-7.470;2023-04-28T04:01:00;99742.59;;;11.51;100.00
64253;BME280;50592;52.958;-7.470;2023-04-28T04:03:26;99737.47;;;11.49;100.00
64253;BME280;50592;52.958;-7.470;2023-04-28T04:05:55;99749.72;;;11.50;100.00
64253;BME280;50592;52.958;-7.470;2023-04-28T04:08:21;99739.47;;;11.47;100.00
64253;BME280;50592;52.958;-7.470;2023-04-28T04:10:47;99743.91;;;11.47;100.00
64253;BME280;50592;52.958;-7.470;2023-04-28T04:13:13;99737.97;;;11.45;100.00
64253;BME280;50592;52.958;-7.470;2023-04-28T04:15:40;99738.31;;;11.41;100.00
64253;BME280;50592;52.958;-7.470;2023-04-28T04:18:07;99740.97;;;11.41;100.00
64253;BME280;50592;52.958;-7.470;2023-04-28T04:20:52;99742.59;;;11.43;100.00
64253;BME280;50592;52.958;-7.470;2023-04-28T04:23:21;99743.44;;;11.43;100.00
64253;BME280;50592;52.958;-7.470;2023-04-28T04:25:47;99742.28;;;11.46;100.00
64253;BME280;50592;52.958;-7.470;2023-04-28T04:28:14;99742.28;;;11.46;100.00
64253;BME280;50592;52.958;-7.470;2023-04-28T04:30:41;99746.56;;;11.47;100.00
64253;BME280;50592;52.958;-7.470;2023-04-28T04:33:08;99745.59;;;11.48;100.00
64253;BME280;50592;52.958;-7.470;2023-04-28T04:35:34;99750.03;;;11.47;100.00
64253;BME280;50592;52.958;-7.470;2023-04-28T04:38:01;99757.97;;;11.47;100.00
64253;BME280;50592;52.958;-7.470;2023-04-28T04:40:27;99760.63;;;11.47;100.00
64253;BME280;50592;52.958;-7.470;2023-04-28T04:42:54;99766.91;;;11.46;100.00
64253;BME280;50592;52.958;-7.470;2023-04-28T04:45:20;99763.59;;;11.44;100.00
64253;BME280;50592;52.958;-7.470;2023-04-28T04:47:47;99768.22;;;11.42;100.00
64253;BME280;50592;52.958;-7.470;2023-04-28T04:50:13;99774.34;;;11.43;100.00
64253;BME280;50592;52.958;-7.470;2023-04-28T04:52:39;99776.84;;;11.44;100.00
64253;BME280;50592;52.958;-7.470;2023-04-28T04:55:06;99779.47;;;11.44;100.00
64253;BME280;50592;52.958;-7.470;2023-04-28T04:57:32;99778.97;;;11.40;100.00
64253;BME280;50592;52.958;-7.470;2023-04-28T05:00:01;99783.31;;;11.41;100.00
64253;BME280;50592;52.958;-7.470;2023-04-28T05:02:27;99782.81;;;11.38;100.00
64253;BME280;50592;52.958;-7.470;2023-04-28T05:04:53;99782.81;;;11.38;100.00
64253;BME280;50592;52.958;-7.470;2023-04-28T05:07:19;99788.94;;;11.38;100.00
64253;BME280;50592;52.958;-7.470;2023-04-28T05:09:45;99795.03;;;11.39;100.00
64253;BME280;50592;52.958;-7.470;2023-04-28T05:12:11;99789.09;;;11.37;100.00
64253;BME280;50592;52.958;-7.470;2023-04-28T05:14:36;99790.56;;;11.39;100.00
64253;BME280;50592;52.958;-7.470;2023-04-28T05:17:02;99800.31;;;11.39;100.00
64253;BME280;50592;52.958;-7.470;2023-04-28T05:19:35;99801.31;;;11.38;100.00
64253;BME280;50592;52.958;-7.470;2023-04-28T05:22:02;99804.81;;;11.38;100.00
64253;BME280;50592;52.958;-7.470;2023-04-28T05:24:28;99802.97;;;11.39;100.00
64253;BME280;50592;52.958;-7.470;2023-04-28T05:26:57;99808.59;;;11.44;100.00
64253;BME280;50592;52.958;-7.470;2023-04-28T05:29:23;99809.09;;;11.39;100.00
64253;BME280;50592;52.958;-7.470;2023-04-28T05:31:49;99811.41;;;11.43;100.00
64253;BME280;50592;52.958;-7.470;2023-04-28T05:34:15;99813.72;;;11.46;100.00
64253;BME280;50592;52.958;-7.470;2023-04-28T05:36:41;99819.84;;;11.46;100.00
64253;BME280;50592;52.958;-7.470;2023-04-28T05:39:09;99826.13;;;11.45;100.00
64253;BME280;50592;52.958;-7.470;2023-04-28T05:41:37;99825.31;;;11.45;100.00
64253;BME280;50592;52.958;-7.470;2023-04-28T05:44:04;99822.50;;;11.46;100.00
64253;BME280;50592;52.958;-7.470;2023-04-28T05:46:31;99825.94;;;11.47;100.00
64253;BME280;50592;52.958;-7.470;2023-04-28T05:48:58;99839.69;;;11.50;100.00
64253;BME280;50592;52.958;-7.470;2023-04-28T05:51:26;99838.03;;;11.49;100.00
64253;BME280;50592;52.958;-7.470;2023-04-28T05:53:52;99844.97;;;11.50;100.00
64253;BME280;50592;52.958;-7.470;2023-04-28T05:56:19;99854.44;;;11.53;100.00
64253;BME280;50592;52.958;-7.470;2023-04-28T05:58:46;99858.72;;;11.54;100.00
64253;BME280;50592;52.958;-7.470;2023-04-28T06:01:12;99858.72;;;11.54;100.00
64253;BME280;50592;52.958;-7.470;2023-04-28T06:03:38;99865.66;;;11.55;100.00
64253;BME280;50592;52.958;-7.470;2023-04-28T06:06:10;99855.91;;;11.56;100.00
64253;BME280;50592;52.958;-7.470;2023-04-28T06:08:37;99861.53;;;11.52;100.00
64253;BME280;50592;52.958;-7.470;2023-04-28T06:11:04;99872.78;;;11.54;100.00
64253;BME280;50592;52.958;-7.470;2023-04-28T06:13:30;99866.81;;;11.52;100.00
64253;BME280;50592;52.958;-7.470;2023-04-28T06:15:55;99876.25;;;11.55;100.00
64253;BME280;50592;52.958;-7.470;2023-04-28T06:18:22;99872.63;;;11.56;100.00
64253;BME280;50592;52.958;-7.470;2023-04-28T06:20:49;99878.72;;;11.57;100.00
64253;BME280;50592;52.958;-7.470;2023-04-28T06:23:15;99873.25;;;11.58;100.00
64253;BME280;50592;52.958;-7.470;2023-04-28T06:25:46;99884.34;;;11.62;100.00
64253;BME280;50592;52.958;-7.470;2023-04-28T06:28:12;99889.31;;;11.65;100.00
64253;BME280;50592;52.958;-7.470;2023-04-28T06:30:39;99884.03;;;11.65;100.00
64253;BME280;50592;52.958;-7.470;2023-04-28T06:33:05;99892.81;;;11.65;100.00
64253;BME280;50592;52.958;-7.470;2023-04-28T06:35:32;99887.69;;;11.64;100.00
64253;BME280;50592;52.958;-7.470;2023-04-28T06:38:01;99896.25;;;11.66;100.00
64253;BME280;50592;52.958;-7.470;2023-04-28T06:40:28;99900.59;;;11.67;100.00
64253;BME280;50592;52.958;-7.470;2023-04-28T06:42:56;99910.16;;;11.68;100.00
64253;BME280;50592;52.958;-7.470;2023-04-28T06:45:33;99912.81;;;11.68;100.00
64253;BME280;50592;52.958;-7.470;2023-04-28T06:48:02;99909.84;;;11.71;100.00
64253;BME280;50592;52.958;-7.470;2023-04-28T06:50:27;99922.91;;;11.73;100.00
64253;BME280;50592;52.958;-7.470;2023-04-28T06:52:53;99921.91;;;11.74;100.00
64253;BME280;50592;52.958;-7.470;2023-04-28T06:55:20;99926.88;;;11.77;100.00
64253;BME280;50592;52.958;-7.470;2023-04-28T06:57:45;99928.22;;;11.81;100.00
64253;BME280;50592;52.958;-7.470;2023-04-28T07:00:12;99925.06;;;11.86;100.00
64253;BME280;50592;52.958;-7.470;2023-04-28T07:02:38;99938.31;;;11.86;100.00
64253;BME280;50592;52.958;-7.470;2023-04-28T07:05:04;99943.44;;;11.87;100.00
64253;BME280;50592;52.958;-7.470;2023-04-28T07:07:31;99943.28;;;11.89;100.00
64253;BME280;50592;52.958;-7.470;2023-04-28T07:09:57;99946.25;;;11.94;100.00
64253;BME280;50592;52.958;-7.470;2023-04-28T07:12:23;99943.44;;;11.96;100.00
64253;BME280;50592;52.958;-7.470;2023-04-28T07:14:49;99948.41;;;11.99;100.00
64253;BME280;50592;52.958;-7.470;2023-04-28T07:17:16;99955.03;;;12.03;100.00
64253;BME280;50592;52.958;-7.470;2023-04-28T07:19:41;99961.78;;;12.06;100.00
64253;BME280;50592;52.958;-7.470;2023-04-28T07:22:07;99953.56;;;12.09;100.00
64253;BME280;50592;52.958;-7.470;2023-04-28T07:24:33;99961.19;;;12.12;100.00
64253;BME280;50592;52.958;-7.470;2023-04-28T07:26:59;99964.47;;;12.14;100.00
64253;BME280;50592;52.958;-7.470;2023-04-28T07:29:25;99969.94;;;12.12;100.00
64253;BME280;50592;52.958;-7.470;2023-04-28T07:31:53;99971.13;;;12.10;100.00
64253;BME280;50592;52.958;-7.470;2023-04-28T07:34:19;99968.63;;;12.08;100.00
64253;BME280;50592;52.958;-7.470;2023-04-28T07:36:45;99982.22;;;12.13;100.00
64253;BME280;50592;52.958;-7.470;2023-04-28T07:39:11;99982.69;;;12.17;100.00
64253;BME280;50592;52.958;-7.470;2023-04-28T07:41:37;99985.69;;;12.22;100.00
64253;BME280;50592;52.958;-7.470;2023-04-28T07:44:04;99976.06;;;12.30;100.00
64253;BME280;50592;52.958;-7.470;2023-04-28T07:46:31;99990.97;;;12.31;100.00
64253;BME280;50592;52.958;-7.470;2023-04-28T07:48:57;99986.31;;;12.33;100.00
64253;BME280;50592;52.958;-7.470;2023-04-28T07:51:23;99985.50;;;12.32;100.00
64253;BME280;50592;52.958;-7.470;2023-04-28T07:53:49;99992.78;;;12.30;100.00
64253;BME280;50592;52.958;-7.470;2023-04-28T07:56:15;100001.06;;;12.27;100.00
64253;BME280;50592;52.958;-7.470;2023-04-28T07:58:41;100000.56;;;12.23;100.00
64253;BME280;50592;52.958;-7.470;2023-04-28T08:01:07;100010.69;;;12.20;100.00
64253;BME280;50592;52.958;-7.470;2023-04-28T08:03:33;100002.06;;;12.26;100.00
64253;BME280;50592;52.958;-7.470;2023-04-28T08:05:59;100007.03;;;12.29;100.00
64253;BME280;50592;52.958;-7.470;2023-04-28T08:08:26;100013.31;;;12.28;100.00
64253;BME280;50592;52.958;-7.470;2023-04-28T08:10:52;100016.47;;;12.32;100.00
64253;BME280;50592;52.958;-7.470;2023-04-28T08:13:19;100015.31;;;12.34;100.00
64253;BME280;50592;52.958;-7.470;2023-04-28T08:15:46;100020.31;;;12.37;100.00
64253;BME280;50592;52.958;-7.470;2023-04-28T08:18:12;100019.47;;;12.37;100.00
64253;BME280;50592;52.958;-7.470;2023-04-28T08:20:38;100024.44;;;12.40;100.00
64253;BME280;50592;52.958;-7.470;2023-04-28T08:23:03;100029.91;;;12.47;100.00
64253;BME280;50592;52.958;-7.470;2023-04-28T08:25:29;100026.75;;;12.51;100.00
64253;BME280;50592;52.958;-7.470;2023-04-28T08:27:56;100023.75;;;12.55;100.00
64253;BME280;50592;52.958;-7.470;2023-04-28T08:30:22;100025.22;;;12.57;100.00
64253;BME280;50592;52.958;-7.470;2023-04-28T08:32:47;100034.31;;;12.71;100.00
64253;BME280;50592;52.958;-7.470;2023-04-28T08:35:13;100034.31;;;12.80;100.00
64253;BME280;50592;52.958;-7.470;2023-04-28T08:37:40;100029.16;;;12.86;100.00
64253;BME280;50592;52.958;-7.470;2023-04-28T08:40:06;100036.44;;;12.93;100.00
64253;BME280;50592;52.958;-7.470;2023-04-28T08:42:36;100040.56;;;12.95;100.00
64253;BME280;50592;52.958;-7.470;2023-04-28T08:45:03;100038.25;;;13.00;100.00
64253;BME280;50592;52.958;-7.470;2023-04-28T08:47:37;100046.00;;;13.10;100.00
64253;BME280;50592;52.958;-7.470;2023-04-28T08:50:08;100045.66;;;13.13;100.00
64253;BME280;50592;52.958;-7.470;2023-04-28T08:52:34;100041.97;;;13.23;100.00
64253;BME280;50592;52.958;-7.470;2023-04-28T08:55:06;100044.91;;;13.36;100.00
64253;BME280;50592;52.958;-7.470;2023-04-28T08:57:37;100048.00;;;13.48;100.00
64253;BME280;50592;52.958;-7.470;2023-04-28T09:00:04;100049.81;;;13.48;100.00
64253;BME280;50592;52.958;-7.470;2023-04-28T09:02:30;100045.34;;;13.48;100.00
64253;BME280;50592;52.958;-7.470;2023-04-28T09:04:57;100050.00;;;13.55;100.00
64253;BME280;50592;52.958;-7.470;2023-04-28T09:07:22;100050.84;;;13.55;100.00
64253;BME280;50592;52.958;-7.470;2023-04-28T09:09:48;100055.47;;;13.53;100.00
64253;BME280;50592;52.958;-7.470;2023-04-28T09:12:14;100061.47;;;13.47;100.00
64253;BME280;50592;52.958;-7.470;2023-04-28T09:14:40;100065.78;;;13.39;100.00
64253;BME280;50592;52.958;-7.470;2023-04-28T09:17:10;100069.78;;;13.35;100.00
64253;BME280;50592;52.958;-7.470;2023-04-28T09:19:38;100079.81;;;13.25;100.00
64253;BME280;50592;52.958;-7.470;2023-04-28T09:22:07;100089.78;;;13.14;100.00
64253;BME280;50592;52.958;-7.470;2023-04-28T09:24:34;100086.44;;;13.12;100.00
64253;BME280;50592;52.958;-7.470;2023-04-28T09:27:05;100088.94;;;13.14;100.00
64253;BME280;50592;52.958;-7.470;2023-04-28T09:29:32;100095.25;;;13.13;100.00
64253;BME280;50592;52.958;-7.470;2023-04-28T09:34:51;100096.34;;;13.35;100.00
64253;BME280;50592;52.958;-7.470;2023-04-28T09:37:20;100099.78;;;13.44;100.00
64253;BME280;50592;52.958;-7.470;2023-04-28T09:39:47;100091.13;;;13.59;100.00
64253;BME280;50592;52.958;-7.470;2023-04-28T09:42:43;100100.72;;;13.68;100.00
64253;BME280;50592;52.958;-7.470;2023-04-28T09:45:14;100101.41;;;13.62;100.00
64253;BME280;50592;52.958;-7.470;2023-04-28T09:47:45;100099.09;;;13.59;100.00
64253;BME280;50592;52.958;-7.470;2023-04-28T09:50:13;100100.44;;;13.55;100.00
64253;BME280;50592;52.958;-7.470;2023-04-28T09:52:45;100108.25;;;13.56;100.00
64253;BME280;50592;52.958;-7.470;2023-04-28T09:55:18;100104.75;;;13.56;100.00
64253;BME280;50592;52.958;-7.470;2023-04-28T09:57:46;100112.53;;;13.57;100.00
64253;BME280;50592;52.958;-7.470;2023-04-28T10:00:12;100110.72;;;13.58;100.00
64253;BME280;50592;52.958;-7.470;2023-04-28T10:02:39;100111.69;;;13.65;100.00
64253;BME280;50592;52.958;-7.470;2023-04-28T10:05:07;100112.44;;;13.82;100.00
64253;BME280;50592;52.958;-7.470;2023-04-28T10:07:37;100113.09;;;13.84;100.00
64253;BME280;50592;52.958;-7.470;2023-04-28T10:10:05;100115.22;;;13.89;100.00
64253;BME280;50592;52.958;-7.470;2023-04-28T10:12:32;100120.00;;;13.94;100.00
64253;BME280;50592;52.958;-7.470;2023-04-28T10:14:59;100129.00;;;13.93;100.00
64253;BME280;50592;52.958;-7.470;2023-04-28T10:17:26;100134.16;;;13.86;100.00
64253;BME280;50592;52.958;-7.470;2023-04-28T10:19:54;100127.22;;;13.85;100.00
64253;BME280;50592;52.958;-7.470;2023-04-28T10:25:32;100141.63;;;13.91;100.00
64253;BME280;50592;52.958;-7.470;2023-04-28T10:28:03;100142.06;;;14.02;100.00
64253;BME280;50592;52.958;-7.470;2023-04-28T10:30:30;100144.84;;;14.09;100.00
64253;BME280;50592;52.958;-7.470;2023-04-28T10:38:13;100133.84;;;14.44;100.00
64253;BME280;50592;52.958;-7.470;2023-04-28T10:40:52;100142.44;;;14.46;100.00
64253;BME280;50592;52.958;-7.470;2023-04-28T10:56:13;100166.22;;;14.16;100.00
64253;BME280;50592;52.958;-7.470;2023-04-28T10:58:42;100162.94;;;14.14;100.00
64253;BME280;50592;52.958;-7.470;2023-04-28T11:03:55;100169.44;;;14.03;100.00
64253;BME280;50592;52.958;-7.470;2023-04-28T11:06:32;100177.59;;;14.01;100.00
64253;BME280;50592;52.958;-7.470;2023-04-28T11:09:02;100175.78;;;14.02;100.00
64253;BME280;50592;52.958;-7.470;2023-04-28T11:11:32;100179.09;;;14.04;100.00
64253;BME280;50592;52.958;-7.470;2023-04-28T11:16:55;100185.25;;;14.05;100.00
64253;BME280;50592;52.958;-7.470;2023-04-28T11:19:26;100187.75;;;13.98;100.00
64253;BME280;50592;52.958;-7.470;2023-04-28T11:21:56;100175.78;;;14.02;100.00
64253;BME280;50592;52.958;-7.470;2023-04-28T11:24:23;100179.09;;;14.04;100.00
64253;BME280;50592;52.958;-7.470;2023-04-28T11:26:50;100186.19;;;14.12;100.00
64253;BME280;50592;52.958;-7.470;2023-04-28T11:29:16;100185.34;;;14.11;100.00
64253;BME280;50592;52.958;-7.470;2023-04-28T11:31:49;100183.78;;;14.25;100.00
64253;BME280;50592;52.958;-7.470;2023-04-28T11:34:18;100190.25;;;14.31;100.00
64253;BME280;50592;52.958;-7.470;2023-04-28T11:36:44;100192.91;;;14.31;100.00
64253;BME280;50592;52.958;-7.470;2023-04-28T11:39:11;100188.38;;;14.32;100.00
64253;BME280;50592;52.958;-7.470;2023-04-28T11:41:40;100198.53;;;14.36;100.00
64253;BME280;50592;52.958;-7.470;2023-04-28T11:46:45;100197.81;;;14.43;100.00
64253;BME280;50592;52.958;-7.470;2023-04-28T11:49:15;100197.38;;;14.54;100.00
64253;BME280;50592;52.958;-7.470;2023-04-28T11:51:41;100188.38;;;14.63;100.00
64253;BME280;50592;52.958;-7.470;2023-04-28T11:54:09;100203.72;;;14.76;100.00
64253;BME280;50592;52.958;-7.470;2023-04-28T11:56:40;100198.69;;;14.90;100.00
64253;BME280;50592;52.958;-7.470;2023-04-28T11:59:08;100199.91;;;15.03;100.00
64253;BME280;50592;52.958;-7.470;2023-04-28T12:01:44;100202.38;;;15.04;100.00
64253;BME280;50592;52.958;-7.470;2023-04-28T12:04:11;100190.44;;;15.00;100.00
64253;BME280;50592;52.958;-7.470;2023-04-28T12:06:38;100192.38;;;15.06;100.00
64253;BME280;50592;52.958;-7.470;2023-04-28T12:09:15;100194.88;;;15.08;100.00
64253;BME280;50592;52.958;-7.470;2023-04-28T12:12:01;100202.00;;;15.07;100.00
64253;BME280;50592;52.958;-7.470;2023-04-28T12:14:28;100202.84;;;15.08;100.00
64253;BME280;50592;52.958;-7.470;2023-04-28T12:16:54;100206.50;;;15.07;100.00
64253;BME280;50592;52.958;-7.470;2023-04-28T12:19:21;100196.88;;;15.06;100.00
64253;BME280;50592;52.958;-7.470;2023-04-28T12:22:00;100201.09;;;15.15;100.00
64253;BME280;50592;52.958;-7.470;2023-04-28T12:24:26;100205.97;;;15.11;100.00
64253;BME280;50592;52.958;-7.470;2023-04-28T12:26:53;100214.06;;;15.18;100.00
64253;BME280;50592;52.958;-7.470;2023-04-28T12:29:38;100211.97;;;15.29;100.00
64253;BME280;50592;52.958;-7.470;2023-04-28T12:32:06;100213.16;;;15.26;100.00
64253;BME280;50592;52.958;-7.470;2023-04-28T12:34:32;100214.16;;;15.25;100.00
64253;BME280;50592;52.958;-7.470;2023-04-28T12:37:00;100213.44;;;15.31;100.00
64253;BME280;50592;52.958;-7.470;2023-04-28T12:39:27;100210.06;;;15.37;100.00
64253;BME280;50592;52.958;-7.470;2023-04-28T12:41:53;100211.97;;;15.44;100.00
64253;BME280;50592;52.958;-7.470;2023-04-28T12:44:24;100215.03;;;15.56;100.00
64253;BME280;50592;52.958;-7.470;2023-04-28T12:46:52;100223.94;;;15.63;100.00
64253;BME280;50592;52.958;-7.470;2023-04-28T12:49:19;100218.63;;;15.63;100.00
64253;BME280;50592;52.958;-7.470;2023-04-28T12:51:46;100218.88;;;15.53;100.00
64253;BME280;50592;52.958;-7.470;2023-04-28T12:54:11;100220.81;;;15.44;100.00
64253;BME280;50592;52.958;-7.470;2023-04-28T12:56:38;100222.63;;;15.44;100.00
64253;BME280;50592;52.958;-7.470;2023-04-28T12:59:04;100226.44;;;15.49;100.00
64253;BME280;50592;52.958;-7.470;2023-04-28T13:01:30;100231.66;;;15.58;100.00
64253;BME280;50592;52.958;-7.470;2023-04-28T13:03:56;100235.06;;;15.67;100.00
64253;BME280;50592;52.958;-7.470;2023-04-28T13:06:22;100228.81;;;15.74;100.00
64253;BME280;50592;52.958;-7.470;2023-04-28T13:08:48;100231.75;;;15.80;100.00